Latest Weather Observations for Blackall

IDQ60801

Issued at 6:32 pm EST Monday 23 January 2017 (issued every 30 minutes, with the page automatically refreshed every 10 minutes)

About weather observations | Map of weather stations | Latest weather observations for QLD | Other Formats
Station Details ID: 036034 Name: BLACKALL AIRPORT Lat: -24.43 Lon: 145.43 Height: 281.3 m
Data from the previous 72 hours. | See also: Recent months at Blackall
Date/Time
EST
Temp
°C
App
Temp
°C
Dew
Point
°C
Rel
Hum
%
Delta-T
°C
Wind Press
QNH
hPa
Press
MSL
hPa
Rain since
9am
mm
Dir  Spd
km/h
Gust
km/h
Spd
kts
Gust
kts
23/06:30pm 34.1 33.7 19.0 41 10.0 NE 19 28 10 15 1009.8 1007.7 0.0
23/06:00pm 34.7 34.8 18.3 38 10.8 NE 15 26 8 14 1009.6 1007.5 0.0
23/05:30pm 35.2 35.3 19.1 38 10.7 NNE 17 26 9 14 1009.5 1007.4 0.0
23/05:00pm 35.1 35.1 18.2 36 11.1 NNE 15 22 8 12 1009.6 1007.5 0.0
23/04:30pm 35.3 34.7 18.4 37 11.2 N 19 28 10 15 1009.9 1007.9 0.0
23/04:00pm 35.8 36.0 20.1 40 10.6 NE 19 30 10 16 1010.1 1008.1 0.0
23/03:30pm 35.3 35.0 19.2 38 10.7 NNE 19 28 10 15 1010.6 1008.5 0.0
23/03:00pm 35.5 35.5 19.0 37 11.0 N 17 24 9 13 1010.9 1008.8 0.0
23/02:30pm 35.1 34.6 19.1 39 10.7 N 20 32 11 17 1011.1 1009.0 0.0
23/02:00pm 35.2 35.1 19.6 40 10.5 NNE 19 28 10 15 1011.4 1009.3 0.0
23/01:30pm 34.2 34.4 20.6 45 9.2 NNE 20 37 11 20 1011.6 1009.5 0.0
23/01:00pm 34.1 34.1 20.1 43 9.4 NNE 20 32 11 17 1011.7 1009.6 0.0
23/12:30pm 33.7 33.3 20.1 44 9.1 NNE 22 32 12 17 1011.9 1009.8 0.0
23/12:00pm 32.8 31.8 19.7 46 8.7 NNE 24 35 13 19 1012.2 1010.1 0.0
23/11:30am 32.2 32.4 20.5 50 7.9 NNE 20 28 11 15 1012.6 1010.5 0.0
23/11:00am 31.1 30.7 20.1 52 7.3 NNE 22 30 12 16 1013.0 1010.9 0.0
23/10:30am 31.0 29.5 19.4 50 7.7 NNE 26 35 14 19 1013.2 1011.2 0.0
23/10:00am 30.2 28.3 19.3 52 7.2 NNE 28 39 15 21 1013.3 1011.3 0.0
23/09:30am 29.8 28.5 19.8 55 6.6 NNE 26 33 14 18 1013.6 1011.6 0.0
23/09:00am 28.7 28.0 19.6 58 6.0 NNE 22 32 12 17 1013.6 1011.6 0.2
23/08:30am 28.1 27.5 20.4 63 5.1 NNE 24 39 13 21 1013.5 1011.5 0.2
23/08:00am 27.6 27.6 20.2 64 4.9 NNE 20 32 11 17 1013.3 1011.3 0.2
23/07:30am 27.3 27.3 20.1 64 4.8 NNE 20 30 11 16 1013.1 1011.0 0.2
23/07:00am 27.1 27.2 20.0 65 4.7 NNE 19 28 10 15 1012.6 1010.5 0.2
23/06:30am 26.7 26.4 19.6 65 4.6 NNE 20 28 11 15 1012.3 1010.2 0.2
23/06:00am 26.7 26.6 19.6 65 4.7 NNE 19 28 10 15 1011.8 1009.7 0.2
23/05:30am 26.8 26.4 19.4 64 4.8 NNE 20 30 11 16 1011.2 1009.1 0.2
23/05:00am 27.0 27.0 20.1 66 4.6 NNE 20 32 11 17 1010.9 1008.8 0.2
23/04:30am 27.4 27.0 20.2 65 4.8 NNE 22 32 12 17 1010.5 1008.4 0.2
23/04:00am 27.4 27.6 20.5 66 4.6 NNE 20 30 11 16 1010.1 1008.1 0.2
23/03:30am 27.3 27.6 20.4 66 4.6 NE 19 26 10 14 1009.9 1007.9 0.2
23/03:00am 26.8 28.0 19.9 66 4.5 NE 13 19 7 10 1009.8 1007.7 0.2
23/02:30am 27.3 28.4 19.6 62 5.0 ENE 13 17 7 9 1010.0 1008.0 0.2
23/02:00am 27.6 28.2 19.4 61 5.4 ENE 15 20 8 11 1009.9 1007.9 0.2
23/01:30am 27.5 28.4 19.3 61 5.4 E 13 19 7 10 1009.9 1007.9 0.2
23/01:00am 27.7 28.7 18.7 58 5.8 E 11 15 6 8 1010.0 1008.0 0.2
23/12:30am 28.4 29.2 18.2 54 6.6 ESE 11 13 6 7 1010.2 1008.2 0.2
23/12:00am 27.8 28.4 17.6 53 6.5 E 11 13 6 7 1010.3 1008.3 0.2
 
Date/Time
EST
Temp
°C
App
Temp
°C
Dew
Point
°C
Rel
Hum
%
Delta-T
°C
Wind Press
QNH
hPa
Press
MSL
hPa
Rain since
9am
mm
Dir  Spd
km/h
Gust
km/h
Spd
kts
Gust
kts
22/11:30pm 28.3 28.7 16.2 47 7.6 E 9 9 5 5 1010.6 1008.5 0.2
22/11:00pm 29.0 30.3 14.0 39 9.1 CALM 0 0 0 0 1011.1 1009.0 0.2
22/10:30pm 29.1 28.8 14.5 41 8.9 SSE 9 17 5 9 1011.4 1009.3 0.2
22/10:00pm 30.8 31.0 13.1 34 10.7 NNW 4 7 2 4 1011.3 1009.2 0.2
22/09:30pm 30.6 30.6 15.1 39 9.6 NE 9 13 5 7 1011.4 1009.3 0.2
22/09:00pm 30.6 30.8 15.8 40 9.3 NE 9 17 5 9 1010.9 1008.8 0.2
22/08:30pm 30.8 30.9 16.4 42 9.1 NE 11 15 6 8 1010.6 1008.5 0.2
22/08:00pm 30.9 33.5 17.6 45 8.6 CALM 0 6 0 3 1010.0 1008.0 0.2
22/07:30pm 31.2 32.0 16.4 41 9.4 N 7 9 4 5 1009.5 1007.4 0.2
22/07:00pm 31.8 32.4 15.3 37 10.3 NNE 6 11 3 6 1009.4 1007.3 0.2
22/06:30pm 32.4 32.1 14.5 33 11.1 N 9 13 5 7 1009.3 1007.2 0.2
22/06:00pm 32.9 31.3 14.0 32 11.7 NNE 15 24 8 13 1009.1 1007.0 0.2
22/05:30pm 33.4 31.1 15.8 34 11.1 NNE 22 32 12 17 1008.6 1006.5 0.2
22/05:00pm 34.0 32.1 16.8 35 11.1 N 22 30 12 16 1008.4 1006.3 0.2
22/04:30pm 34.7 32.0 14.6 30 12.6 NNE 22 32 12 17 1008.8 1006.7 0.2
22/04:00pm 34.5 33.9 18.9 39 10.4 NNE 20 28 11 15 1008.8 1006.7 0.2
22/03:30pm 33.3 33.1 19.4 44 9.2 NNE 19 28 10 15 1009.0 1006.9 0.2
22/03:00pm 33.9 35.6 21.7 49 8.4 NNE 15 22 8 12 1009.3 1007.2 0.2
22/02:30pm 34.0 35.0 21.8 49 8.4 NNE 19 26 10 14 1009.6 1007.5 0.2
22/02:00pm 33.7 35.3 22.1 50 8.0 NNE 17 26 9 14 1010.0 1008.0 0.2
22/01:30pm 33.9 35.9 22.3 50 8.0 NNE 15 24 8 13 1010.3 1008.3 0.2
22/01:00pm 33.7 34.2 20.8 46 8.8 NE 19 26 10 14 1010.6 1008.5 0.2
22/12:30pm 33.0 34.5 21.2 50 8.0 NNE 15 24 8 13 1010.9 1008.8 0.2
22/12:00pm 32.7 35.4 22.8 56 6.9 NE 13 20 7 11 1011.2 1009.1 0.2
22/11:30am 31.9 33.8 21.4 53 7.1 NNE 13 20 7 11 1011.6 1009.5 0.2
22/11:00am 32.1 34.2 22.5 57 6.6 N 15 24 8 13 1011.8 1009.7 0.2
22/10:30am 31.9 33.6 21.7 54 7.0 N 15 22 8 12 1012.0 1009.9 0.2
22/10:00am 31.4 33.4 21.6 56 6.7 NW 13 20 7 11 1012.1 1010.0 0.2
22/09:30am 30.1 34.5 23.8 69 4.4 NNW 7 11 4 6 1012.1 1010.0 0.0
22/09:00am 28.7 33.1 23.4 73 3.7 NW 6 9 3 5 1012.0 1009.9 0.4
22/08:30am 28.1 31.7 23.0 74 3.5 N 9 13 5 7 1011.7 1009.6 0.4
22/08:00am 27.6 31.7 23.2 77 3.0 ENE 7 11 4 6 1011.5 1009.4 0.4
22/07:30am 26.9 31.2 23.6 82 2.3 E 7 9 4 5 1011.4 1009.3 0.4
22/07:00am 26.5 31.0 24.0 86 1.7 ESE 7 11 4 6 1011.0 1008.9 0.4
22/06:30am 26.1 31.0 23.6 86 1.7 E 4 7 2 4 1010.5 1008.4 0.4
22/06:00am 26.0 30.3 23.3 85 1.9 E 6 7 3 4 1010.2 1008.2 0.4
22/05:30am 25.8 29.2 23.3 86 1.7 ENE 11 15 6 8 1010.0 1008.0 0.4
22/05:00am 25.6 30.1 24.0 91 1.1 SE 7 9 4 5 1009.8 1007.7 0.4
22/04:30am 25.6 30.1 24.0 91 1.1 SE 7 11 4 6 1009.5 1007.4 0.4
22/04:00am 25.6 29.9 24.2 92 1.0 SE 9 13 5 7 1009.3 1007.2 0.4
22/03:30am 25.8 30.2 23.5 87 1.6 ENE 6 7 3 4 1009.0 1006.9 0.4
22/03:00am 25.7 30.0 23.7 89 1.4 E 7 9 4 5 1009.0 1006.9 0.4
22/02:30am 25.7 30.0 23.7 89 1.4 NE 7 9 4 5 1008.9 1006.8 0.4
22/02:00am 25.8 30.1 23.7 88 1.5 ENE 7 9 4 5 1009.0 1006.9 0.4
22/01:30am 25.8 30.6 24.4 92 1.0 ENE 7 9 4 5 1009.3 1007.2 0.4
22/01:00am 25.7 30.5 24.1 91 1.1 ENE 6 7 3 4 1009.6 1007.5 0.4
22/12:30am 25.9 31.1 23.6 87 1.6 SSE 2 6 1 3 1009.8 1007.7 0.4
22/12:00am 26.0 30.3 23.7 87 1.6 SSE 7 11 4 6 1010.3 1008.3 0.4
 
Date/Time
EST
Temp
°C
App
Temp
°C
Dew
Point
°C
Rel
Hum
%
Delta-T
°C
Wind Press
QNH
hPa
Press
MSL
hPa
Rain since
9am
mm
Dir  Spd
km/h
Gust
km/h
Spd
kts
Gust
kts
21/11:30pm 26.2 30.5 23.7 86 1.7 SSE 7 11 4 6 1010.9 1008.8 0.4
21/11:00pm 26.2 32.2 24.2 89 1.4 CALM 0 0 0 0 1011.1 1009.0 0.4
21/10:30pm 26.2 31.5 23.7 86 1.7 NNE 2 6 1 3 1011.1 1009.0 0.4
21/10:00pm 26.3 31.8 23.4 84 2.0 CALM 0 0 0 0 1011.1 1009.0 0.4
21/09:30pm 26.5 31.1 23.2 82 2.3 SSE 4 7 2 4 1010.9 1008.8 0.4
21/09:00pm 26.4 30.6 23.5 84 2.0 SSE 7 11 4 6 1010.6 1008.5 0.4
21/08:30pm 26.4 30.6 23.5 84 2.0 E 7 9 4 5 1009.8 1007.7 0.4
21/08:00pm 26.3 30.5 23.4 84 2.0 ESE 7 9 4 5 1009.5 1007.4 0.4
21/07:30pm 26.5 30.7 23.2 82 2.3 ESE 6 7 3 4 1009.3 1007.2 0.4
21/07:00pm 26.3 30.4 23.2 83 2.1 E 7 9 4 5 1009.2 1007.1 0.4
21/06:30pm 26.5 30.1 23.0 81 2.4 SE 9 15 5 8 1008.3 1006.2 0.4
21/06:00pm 26.6 29.1 22.4 78 2.9 SSE 13 17 7 9 1007.8 1005.7 0.4
21/05:30pm 28.6 32.1 22.1 68 4.4 NE 7 13 4 7 1008.2 1006.1 0.2
21/05:00pm 29.7 30.3 21.4 61 5.6 S 20 28 11 15 1007.5 1005.4 0.2
21/04:30pm 29.9 29.2 21.0 59 6.0 S 26 37 14 20 1007.2 1005.1 0.2
21/04:04pm 32.8 32.4 19.3 45 9.0 SSW 20 54 11 29 1006.8 1004.7 0.2
21/04:00pm 35.7 36.6 19.2 38 11.0 SSW 13 26 7 14 1006.5 1004.4 0.2
21/03:30pm 35.7 40.2 22.3 46 9.3 SSE 2 9 1 5 1006.4 1004.3 0.2
21/03:00pm 34.8 38.3 21.1 44 9.4 SE 4 13 2 7 1007.3 1005.2 0.2
21/02:30pm 34.9 38.3 21.6 46 9.1 N 6 11 3 6 1007.5 1005.4 0.2
21/02:00pm 33.6 35.9 20.7 46 8.8 E 9 13 5 7 1008.0 1005.9 0.2
21/01:30pm 33.2 36.9 21.4 50 8.1 ENE 4 9 2 5 1008.6 1006.5 0.2
21/01:00pm 32.2 35.1 21.7 54 7.2 SE 9 13 5 7 1009.0 1006.9 0.2
21/12:30pm 32.0 35.5 22.1 55 6.8 SSE 7 13 4 7 1009.3 1007.2 0.2
21/12:00pm 31.4 33.9 21.8 56 6.6 SE 11 15 6 8 1009.5 1007.4 0.2
21/11:30am 31.5 34.0 21.7 56 6.7 SE 11 17 6 9 1009.7 1007.6 0.2
21/11:00am 31.2 34.4 23.0 61 5.7 ESE 11 17 6 9 1010.1 1008.1 0.2
21/10:30am 30.1 33.5 24.0 70 4.3 SSE 13 19 7 10 1010.6 1008.5 0.2
21/10:00am 27.4 30.5 23.6 80 2.6 SSW 13 17 7 9 1010.9 1008.8 0.2
21/09:30am 28.4 30.0 23.3 74 3.5 SSW 20 30 11 16 1011.3 1009.2 0.0
21/09:00am 28.1 30.0 23.7 77 3.1 SW 20 32 11 17 1011.5 1009.4 1.4
21/08:30am 25.8 28.3 23.8 89 1.4 SW 17 26 9 14 1011.6 1009.5 1.4
21/08:00am 28.9 29.5 21.1 62 5.3 WSW 19 33 10 18 1011.1 1009.0 0.0
21/07:30am 28.8 33.0 22.5 68 4.3 ENE 4 7 2 4 1009.9 1007.9 0.0
21/07:00am 27.6 32.6 22.5 74 3.5 CALM 0 0 0 0 1009.5 1007.4 0.0
21/06:30am 27.3 32.3 22.5 75 3.3 CALM 0 0 0 0 1009.1 1007.0 0.0
21/06:00am 26.8 31.5 22.0 75 3.3 CALM 0 0 0 0 1008.7 1006.6 0.0
21/05:30am 27.1 31.7 21.8 73 3.6 CALM 0 0 0 0 1008.1 1006.0 0.0
21/05:00am 27.5 31.9 21.3 69 4.2 CALM 0 0 0 0 1007.8 1005.7 0.0
21/04:30am 27.4 30.1 21.4 70 4.0 SSW 9 11 5 6 1007.6 1005.5 0.0
21/04:00am 27.2 30.5 21.5 71 3.8 SSW 6 9 3 5 1007.2 1005.1 0.0
21/03:30am 27.1 31.2 21.6 72 3.7 SSW 2 9 1 5 1007.1 1005.0 0.0
21/03:00am 28.0 31.4 22.0 70 4.1 SSW 7 9 4 5 1007.2 1005.1 0.0
21/02:30am 27.9 32.4 22.2 71 3.9 NE 2 7 1 4 1007.0 1004.9 0.0
21/02:00am 27.8 31.1 21.8 70 4.1 N 7 9 4 5 1006.9 1004.8 0.0
21/01:30am 27.3 30.5 21.3 69 4.0 N 6 9 3 5 1007.1 1005.0 0.0
21/01:00am 28.5 32.8 22.0 68 4.4 NNW 2 6 1 3 1007.4 1005.3 0.0
21/12:30am 28.3 31.3 21.3 65 4.7 NNE 7 9 4 5 1007.7 1005.6 0.0
21/12:00am 28.8 31.2 20.8 62 5.4 NE 9 13 5 7 1007.8 1005.7 0.0
 
Date/Time
EST
Temp
°C
App
Temp
°C
Dew
Point
°C
Rel
Hum
%
Delta-T
°C
Wind Press
QNH
hPa
Press
MSL
hPa
Rain since
9am
mm
Dir  Spd
km/h
Gust
km/h
Spd
kts
Gust
kts
20/11:30pm 29.1 30.9 21.1 62 5.4 NNW 13 15 7 8 1008.2 1006.1 0.0
20/11:00pm 29.9 34.0 20.7 57 6.2 CALM 0 6 0 3 1007.9 1005.8 0.0
20/10:30pm 30.0 32.6 20.5 56 6.4 SSE 7 13 4 7 1007.9 1005.8 0.0
20/10:00pm 30.4 32.2 20.3 54 6.8 S 11 15 6 8 1008.0 1005.9 0.0
20/09:30pm 30.6 31.9 20.2 53 6.9 S 13 20 7 11 1007.9 1005.8 0.0
20/09:00pm 31.1 32.3 19.8 51 7.5 SW 13 17 7 9 1007.7 1005.6 0.0
20/08:30pm 32.0 31.5 18.6 45 8.8 SW 19 30 10 16 1007.2 1005.1 0.0
20/08:00pm 32.9 34.0 17.9 41 9.8 WSW 9 11 5 6 1006.8 1004.7 0.0
20/07:30pm 33.2 34.6 17.8 40 10.0 W 7 9 4 5 1006.5 1004.4 0.0
20/07:00pm 33.4 35.2 18.3 40 9.9 W 6 9 3 5 1006.2 1004.1 0.0

Other Formats:

Comma delimited format used in spreadsheet applications
http://www.bom.gov.au/fwo/IDQ60801/IDQ60801.95351.axf

JavaScript Object Notation format (JSON) in row-major order
http://www.bom.gov.au/fwo/IDQ60801/IDQ60801.95351.json